This is the latest recevied weather packets stored in our database for station/object KO4ILY. If no packets are shown the sender has not sent any weather packets the latest 10 day(s).
| Time | Temp. | Humidity | Pressure | Rain* | Wind** | Luminosity | Snow |
|---|---|---|---|---|---|---|---|
| 1777475119 | 18.89° C | 88% | 1013.7 hPa | 0 mm | - | 237 W/m² | - |
| 1777472720 | 17.78° C | 91% | 1014 hPa | 0 mm | - | 115 W/m² | - |
| 1777465521 | 17.22° C | 88% | 1013.9 hPa | 0 mm | - | 75 W/m² | - |
| 1777460138 | 16.11° C | 91% | 1014.4 hPa | 0 mm | - | 1 W/m² | - |
| 1777459523 | 16.11° C | 90% | 1014.3 hPa | 0 mm | - | 0 W/m² | - |
| 1777452925 | 16.67° C | 94% | 1013.1 hPa | 3.3 mm | - | 0 W/m² | - |
| 1777445121 | 17.22° C | 90% | 1015.8 hPa | 4.83 mm | - | 0 W/m² | - |
| 1777442727 | 17.22° C | 89% | 1016 hPa | 2.03 mm | - | 0 W/m² | - |
| 1777440348 | 17.22° C | 91% | 1016.2 hPa | 0 mm | - | 0 W/m² | - |
| 1777437330 | 17.78° C | 88% | 1015 hPa | 0 mm | - | 0 W/m² | - |
| 1777436730 | 17.78° C | 87% | 1015.5 hPa | 0 mm | - | 0 W/m² | - |
| 1777432516 | 18.33° C | 86% | 1015.6 hPa | 0 mm | - | 0 W/m² | - |
| 1777427718 | 19.44° C | 81% | 1017.8 hPa | 0 mm | - | 0 W/m² | - |
| 1777421736 | 20° C | 80% | 1018.2 hPa | 0 mm | - | 1 W/m² | - |
| 1777418117 | 20.56° C | 79% | 1017.2 hPa | 0 mm | - | 17 W/m² | - |
| 1777414518 | 21.11° C | 76% | 1016.4 hPa | 0 mm | - | 38 W/m² | - |
| 1777409717 | 22.22° C | 75% | 1016.6 hPa | 0 mm | - | 84 W/m² | - |
| 1777408517 | 22.22° C | 74% | 1017.2 hPa | 0 mm | - | 97 W/m² | - |
| 1777406118 | 22.78° C | 74% | 1018.3 hPa | 0 mm | - | 120 W/m² | - |
| 1777404918 | 22.78° C | 73% | 1018.3 hPa | 0 mm | - | 275 W/m² | - |
| 1777404318 | 22.78° C | 74% | 1018.4 hPa | 0 mm | - | 238 W/m² | - |
| 1777403119 | 22.22° C | 76% | 1018.7 hPa | 0 mm | - | 218 W/m² | - |
| 1777402519 | 22.22° C | 75% | 1018.6 hPa | 0 mm | - | 182 W/m² | - |
| 1777398917 | 21.67° C | 81% | 1019.3 hPa | 0 mm | - | 208 W/m² | - |
| 1777396517 | 21.67° C | 82% | 1019.4 hPa | 0 mm | - | 350 W/m² | - |
* Rain latest hour (hover to see other rain measurements)
** Current wind speed in m/s (hover to see current wind gust speed)